createdAt,value
2023-01-09T00:02:06.108Z,76.60
2023-01-09T00:07:10.261Z,76.80
2023-01-09T00:12:13.925Z,76.70
2023-01-09T00:17:19.217Z,76.70
2023-01-09T00:22:23.047Z,76.60
2023-01-09T00:27:26.808Z,76.70
2023-01-09T00:32:32.066Z,76.80
2023-01-09T00:37:35.697Z,76.80
2023-01-09T00:42:39.811Z,76.80
2023-01-09T00:47:49.851Z,76.90
2023-01-09T00:52:57.171Z,76.90
2023-01-09T00:58:00.870Z,76.90
2023-01-09T01:03:07.402Z,76.90
2023-01-09T01:08:14.928Z,76.80
2023-01-09T01:13:19.116Z,76.70
2023-01-09T01:18:24.387Z,77.20
2023-01-09T01:23:28.164Z,77.30
2023-01-09T01:28:31.955Z,77.00
2023-01-09T01:33:37.807Z,77.20
2023-01-09T01:38:41.527Z,77.40
2023-01-09T01:43:54.494Z,77.20
2023-01-09T01:49:05.514Z,76.90
2023-01-09T01:54:14.540Z,76.70
2023-01-09T01:59:23.090Z,76.60
2023-01-09T02:04:29.222Z,76.60
2023-01-09T02:09:33.562Z,76.80
2023-01-09T02:14:37.239Z,76.70
2023-01-09T02:20:53.495Z,76.70
2023-01-09T02:26:57.774Z,76.70
2023-01-09T02:32:12.877Z,76.70
2023-01-09T02:37:28.889Z,76.60
2023-01-09T02:42:33.836Z,76.70
2023-01-09T02:47:44.255Z,77.00
2023-01-09T02:59:26.659Z,77.50
2023-01-09T03:04:49.105Z,77.60
2023-01-09T03:10:00.405Z,77.70
2023-01-09T03:15:07.461Z,77.70
2023-01-09T03:20:17.664Z,77.70
2023-01-09T03:25:21.643Z,77.90
2023-01-09T03:30:27.024Z,77.80
2023-01-09T03:35:32.159Z,77.80
2023-01-09T03:40:35.915Z,77.70
2023-01-09T03:45:39.778Z,77.50
2023-01-09T03:50:47.309Z,77.40
2023-01-09T03:55:54.493Z,77.60
2023-01-09T04:01:02.453Z,77.30
2023-01-09T04:06:08.841Z,77.10
2023-01-09T04:11:12.579Z,77.20
2023-01-09T04:16:16.263Z,77.20
2023-01-09T04:21:21.547Z,77.20
2023-01-09T04:26:25.469Z,77.40
2023-01-09T04:31:29.390Z,76.70
2023-01-09T04:36:36.290Z,76.10
2023-01-09T04:41:52.234Z,75.70
2023-01-09T04:46:58.876Z,75.50
2023-01-09T04:52:04.059Z,75.50
2023-01-09T04:57:08.013Z,75.20
2023-01-09T05:02:12.439Z,75.10
2023-01-09T05:07:17.702Z,75.10
2023-01-09T05:12:21.459Z,74.90
2023-01-09T05:17:25.261Z,74.90
2023-01-09T05:22:30.360Z,74.80
2023-01-09T05:27:34.305Z,74.70
2023-01-09T05:32:38.099Z,74.90
2023-01-09T05:37:43.464Z,75.00
2023-01-09T05:42:47.483Z,75.00
2023-01-09T05:47:51.611Z,75.60
2023-01-09T05:52:57.762Z,74.70
2023-01-09T05:58:01.631Z,74.90
2023-01-09T06:03:05.534Z,75.00
2023-01-09T06:08:10.734Z,75.10
2023-01-09T06:13:14.372Z,75.20
2023-01-09T06:18:18.317Z,75.60
2023-01-09T06:23:23.411Z,75.70
2023-01-09T06:28:27.203Z,75.70
2023-01-09T06:33:32.196Z,76.00
2023-01-09T06:38:37.527Z,75.40
2023-01-09T06:43:41.828Z,74.60
2023-01-09T06:48:45.593Z,74.40
2023-01-09T06:53:50.756Z,74.10
2023-01-09T06:58:54.450Z,74.20
2023-01-09T07:03:58.259Z,74.40
2023-01-09T07:09:06.191Z,74.20
2023-01-09T07:14:09.984Z,74.10
2023-01-09T07:19:13.695Z,74.10
2023-01-09T07:24:19.109Z,74.10
2023-01-09T07:29:23.052Z,74.10
2023-01-09T07:34:26.874Z,74.10
2023-01-09T07:39:32.077Z,74.10
2023-01-09T07:44:35.875Z,74.60
2023-01-09T07:49:39.819Z,74.30
2023-01-09T07:54:44.891Z,74.60
2023-01-09T07:59:48.561Z,71.10
2023-01-09T08:04:52.361Z,69.50
2023-01-09T08:09:57.491Z,68.00
2023-01-09T08:15:01.368Z,66.80
2023-01-09T08:20:05.904Z,65.70
2023-01-09T08:25:12.874Z,65.00
2023-01-09T08:30:18.508Z,63.90
2023-01-09T08:35:22.976Z,63.70
2023-01-09T08:40:28.214Z,62.90
2023-01-09T08:45:50.625Z,62.60
2023-01-09T08:50:54.522Z,63.40
2023-01-09T08:55:59.610Z,64.20
2023-01-09T09:01:08.191Z,70.60
2023-01-09T09:06:11.956Z,69.80
2023-01-09T09:11:17.074Z,69.60
2023-01-09T09:16:20.758Z,70.30
2023-01-09T09:21:24.622Z,69.70
2023-01-09T09:26:29.699Z,69.70
2023-01-09T09:31:33.611Z,69.90
2023-01-09T09:36:37.496Z,70.10
2023-01-09T09:42:46.990Z,70.30
2023-01-09T09:48:03.941Z,70.40
2023-01-09T09:53:15.055Z,70.60
2023-01-09T09:58:29.066Z,70.90
2023-01-09T10:03:38.640Z,70.90
2023-01-09T10:08:53.231Z,71.10
2023-01-09T10:14:22.792Z,71.20
2023-01-09T10:19:54.136Z,71.50
2023-01-09T10:25:18.229Z,71.80
2023-01-09T10:30:39.395Z,69.60
2023-01-09T10:36:22.458Z,66.60
2023-01-09T10:41:34.908Z,64.70
2023-01-09T10:46:50.415Z,64.30
2023-01-09T10:52:06.804Z,63.30
2023-01-09T10:57:16.812Z,62.50
2023-01-09T11:02:32.355Z,63.00
2023-01-09T11:07:41.065Z,62.10
2023-01-09T11:12:44.697Z,61.90
2023-01-09T11:17:52.838Z,61.30
2023-01-09T11:22:59.843Z,62.70
2023-01-09T11:28:08.728Z,65.20
2023-01-09T11:33:22.623Z,65.20
2023-01-09T11:38:26.773Z,65.90
2023-01-09T11:43:37.781Z,67.90
2023-01-09T11:48:57.133Z,68.60
2023-01-09T11:54:25.479Z,68.10
2023-01-09T11:59:32.152Z,68.30
2023-01-09T12:04:44.296Z,68.50
2023-01-09T12:10:02.429Z,68.80
2023-01-09T12:15:26.517Z,69.00
2023-01-09T12:20:49.548Z,69.10
2023-01-09T12:26:11.472Z,69.40
2023-01-09T12:31:49.187Z,69.50
2023-01-09T12:37:16.408Z,69.60
2023-01-09T12:42:40.340Z,70.00
2023-01-09T12:47:49.837Z,70.00
2023-01-09T12:53:17.997Z,70.30
2023-01-09T12:58:37.718Z,70.40
2023-01-09T13:03:50.382Z,70.50
2023-01-09T13:09:08.581Z,70.50
2023-01-09T13:14:20.345Z,70.70
2023-01-09T13:19:31.208Z,70.80
2023-01-09T13:24:48.392Z,70.90
2023-01-09T13:29:58.940Z,70.90
2023-01-09T13:35:02.998Z,71.00
2023-01-09T13:40:29.398Z,71.30
2023-01-09T13:45:37.112Z,71.20
2023-01-09T13:50:43.379Z,71.30
2023-01-09T13:56:08.261Z,71.30
2023-01-09T14:01:47.683Z,71.40
2023-01-09T14:07:21.536Z,71.40
2023-01-09T14:12:28.009Z,71.50
2023-01-09T14:17:38.993Z,71.60
2023-01-09T14:22:55.791Z,72.30
2023-01-09T14:28:22.106Z,71.60
2023-01-09T14:33:32.713Z,71.60
2023-01-09T14:38:39.042Z,71.70
2023-01-09T14:43:57.712Z,71.70
2023-01-09T14:49:08.639Z,71.70
2023-01-09T14:54:33.343Z,71.70
2023-01-09T14:59:38.980Z,71.80
2023-01-09T15:04:43.544Z,71.80
2023-01-09T15:09:49.688Z,71.90
2023-01-09T15:14:59.333Z,72.00
2023-01-09T15:20:07.555Z,71.90
2023-01-09T15:25:38.170Z,72.00
2023-01-09T15:30:44.328Z,72.10
2023-01-09T15:35:51.922Z,72.10
2023-01-09T15:41:01.249Z,72.10
2023-01-09T15:46:06.823Z,72.20
2023-01-09T15:51:15.000Z,72.20
2023-01-09T15:56:24.143Z,72.30
2023-01-09T16:01:32.800Z,72.40
2023-01-09T16:06:45.338Z,72.40
2023-01-09T16:11:53.159Z,72.50
2023-01-09T16:17:01.597Z,72.50
2023-01-09T16:22:05.689Z,72.50
2023-01-09T16:27:28.725Z,72.60
2023-01-09T16:32:37.435Z,72.60
2023-01-09T16:37:41.858Z,72.60
2023-01-09T16:43:03.456Z,73.40
2023-01-09T16:48:17.944Z,72.80
2023-01-09T16:53:27.048Z,72.80
2023-01-09T16:58:33.321Z,72.80
2023-01-09T17:03:38.579Z,72.90
2023-01-09T17:08:44.023Z,72.80
2023-01-09T17:13:48.231Z,73.00
2023-01-09T17:18:53.439Z,73.70
2023-01-09T17:24:11.685Z,73.00
2023-01-09T17:29:15.463Z,72.90
2023-01-09T17:34:20.658Z,72.90
2023-01-09T17:39:30.391Z,73.00
2023-01-09T17:44:34.207Z,73.70
2023-01-09T17:49:41.800Z,73.00
2023-01-09T17:54:45.559Z,73.00
2023-01-09T17:59:49.250Z,73.00
2023-01-09T18:04:54.238Z,73.80
2023-01-09T18:09:57.845Z,73.00
2023-01-09T18:15:02.618Z,73.10
2023-01-09T18:20:10.681Z,72.90
2023-01-09T18:25:14.388Z,70.80
2023-01-09T18:30:18.632Z,69.00
2023-01-09T18:35:23.835Z,67.60
2023-01-09T18:40:27.929Z,66.70
2023-01-09T18:45:31.836Z,66.60
2023-01-09T18:50:37.076Z,66.60
2023-01-09T18:55:40.874Z,66.90
2023-01-09T19:00:46.103Z,67.10
2023-01-09T19:05:51.416Z,67.20
2023-01-09T19:10:55.337Z,67.20
2023-01-09T19:16:00.630Z,67.40
2023-01-09T19:21:13.416Z,67.50
2023-01-09T19:26:21.224Z,67.80
2023-01-09T19:31:25.659Z,67.80
2023-01-09T19:36:30.848Z,67.80
2023-01-09T19:41:34.579Z,67.80
2023-01-09T19:46:38.342Z,67.80
2023-01-09T19:51:43.624Z,67.80
2023-01-09T19:56:47.456Z,67.80
2023-01-09T20:01:51.296Z,68.00
2023-01-09T20:06:56.405Z,68.10
2023-01-09T20:12:02.006Z,68.30
2023-01-09T20:17:05.900Z,68.50
2023-01-09T20:22:11.051Z,68.70
2023-01-09T20:27:14.827Z,69.40
2023-01-09T20:32:18.824Z,69.80
2023-01-09T20:37:23.918Z,70.10
2023-01-09T20:42:27.772Z,70.40
2023-01-09T20:47:31.566Z,70.50
2023-01-09T20:52:36.576Z,70.60
2023-01-09T20:57:40.562Z,70.90
2023-01-09T21:02:44.336Z,71.80
2023-01-09T21:07:49.833Z,72.30
2023-01-09T21:12:53.898Z,73.10
2023-01-09T21:17:58.032Z,72.10
2023-01-09T21:23:03.170Z,72.10
2023-01-09T21:28:07.341Z,72.20
2023-01-09T21:33:11.196Z,72.20
2023-01-09T21:38:16.212Z,72.30
2023-01-09T21:43:46.558Z,72.30
2023-01-09T21:48:50.349Z,72.30
2023-01-09T21:53:55.498Z,72.30
2023-01-09T21:58:59.253Z,72.40
2023-01-09T22:04:03.228Z,72.40
2023-01-09T22:09:08.423Z,72.50
2023-01-09T22:14:14.668Z,72.50
2023-01-09T22:19:19.129Z,72.40
2023-01-09T22:24:24.289Z,72.40
2023-01-09T22:29:28.137Z,72.40
2023-01-09T22:34:32.152Z,72.40
2023-01-09T22:39:37.284Z,72.50
2023-01-09T22:44:40.985Z,72.50
2023-01-09T22:49:52.831Z,72.70
2023-01-09T22:54:58.335Z,72.40
2023-01-09T23:00:02.188Z,71.80
2023-01-09T23:05:07.235Z,73.10
2023-01-09T23:10:13.417Z,72.60
2023-01-09T23:15:17.149Z,72.20
2023-01-09T23:20:21.131Z,72.00
2023-01-09T23:25:26.372Z,71.90
2023-01-09T23:30:30.110Z,71.70
2023-01-09T23:35:33.935Z,71.60
2023-01-09T23:40:41.551Z,71.70
2023-01-09T23:45:51.520Z,71.60
2023-01-09T23:50:56.944Z,71.60
2023-01-09T23:56:03.088Z,71.70
